Tuesday, November 21, 2017, 10:43 AM EST
Back to Local

KSNC, Chester, Chester Airport

Location: Chester, CT, United States Lat: 41.384
Local Time: 10:43 AM EST (15:43 GMT) Lon: -72.506
Time Zone: US/Eastern Elev: 416 ft

Show me the last for .
Show Decoded

2017-11-21 10:35 METAR KSNC 211535Z AUTO 20010G23KT 160V230 10SM CLR 12/02 A3012 RMK AO2 =
2017-11-21 10:15 METAR KSNC 211515Z AUTO 21012G21KT 10SM CLR 12/02 A3012 RMK AO2 =
2017-11-21 09:55 METAR KSNC 211455Z AUTO 21010G18KT 10SM CLR 11/02 A3013 RMK AO2 =
2017-11-21 09:35 METAR KSNC 211435Z AUTO 21009G23KT 180V250 10SM CLR 11/01 A3013 RMK AO2 =
2017-11-21 09:15 METAR KSNC 211415Z AUTO 23007G15KT 190V270 10SM CLR 10/01 A3014 RMK AO2 =
2017-11-21 08:55 METAR KSNC 211355Z AUTO 23007G14KT 10SM CLR 10/01 A3014 RMK AO2 =
2017-11-21 08:35 METAR KSNC 211335Z AUTO 23007KT 210V270 10SM CLR 09/01 A3014 RMK AO2 =
2017-11-21 08:15 METAR KSNC 211315Z AUTO 23007KT 10SM CLR 08/01 A3014 RMK AO2 =
2017-11-21 07:55 METAR KSNC 211255Z AUTO 22006G11KT 10SM CLR 07/01 A3014 RMK AO2 =
2017-11-21 07:35 METAR KSNC 211235Z AUTO 21004KT 10SM CLR 06/00 A3013 RMK AO2 =
2017-11-21 06:55 METAR KSNC 211155Z AUTO 22004KT 10SM CLR 04/M00 A3012 RMK AO2 =
2017-11-21 06:35 METAR KSNC 211135Z AUTO 22005KT 10SM CLR 05/M01 A3012 RMK AO2 =
2017-11-21 06:15 METAR KSNC 211115Z AUTO 21004KT 10SM CLR 04/M01 A3011 RMK AO2 =
2017-11-21 05:55 METAR KSNC 211055Z AUTO 23004KT 10SM CLR 04/M02 A3010 RMK AO2 =
2017-11-21 05:35 METAR KSNC 211035Z AUTO 22005KT 10SM CLR 04/M02 A3011 RMK AO2 =
2017-11-21 05:15 METAR KSNC 211015Z AUTO 22004KT 10SM CLR 04/M02 A3011 RMK AO2 =
2017-11-21 04:55 METAR KSNC 210955Z AUTO 21004KT 10SM CLR 04/M02 A3011 RMK AO2 =
2017-11-21 04:35 METAR KSNC 210935Z AUTO 22003KT 10SM CLR 04/M02 A3011 RMK AO2 =
2017-11-21 04:15 METAR KSNC 210915Z AUTO 23004KT 10SM CLR 04/M02 A3011 RMK AO2 =
2017-11-21 03:55 METAR KSNC 210855Z AUTO 23004KT 10SM CLR 04/M02 A3011 RMK AO2 =
2017-11-21 03:35 METAR KSNC 210835Z AUTO 23005KT 10SM CLR 04/M02 A3011 RMK AO2 =
2017-11-21 03:15 METAR KSNC 210815Z AUTO 22005KT 10SM CLR 04/M03 A3010 RMK AO2 =
2017-11-21 02:55 METAR KSNC 210755Z AUTO 23004KT 10SM CLR 04/M04 A3010 RMK AO2 =
2017-11-21 02:35 METAR KSNC 210735Z AUTO 24004KT 10SM CLR 05/M04 A3011 RMK AO2 =
2017-11-21 02:15 METAR KSNC 210715Z AUTO VRB05KT 10SM CLR 05/M04 A3012 RMK AO2 =
2017-11-21 01:55 METAR KSNC 210655Z AUTO VRB05G12KT 10SM CLR 05/M04 A3011 RMK AO2 =
2017-11-21 01:35 METAR KSNC 210635Z AUTO 24007KT 10SM CLR 05/M05 A3010 RMK AO2 =
2017-11-21 01:15 METAR KSNC 210615Z AUTO VRB05KT 10SM CLR 04/M04 A3010 RMK AO2 =
2017-11-21 00:55 METAR KSNC 210555Z AUTO 23006KT 10SM CLR 04/M04 A3010 RMK AO2 =
2017-11-21 00:35 METAR KSNC 210535Z AUTO 23006KT 10SM CLR 04/M05 A3011 RMK AO2 =
2017-11-21 00:15 METAR KSNC 210515Z AUTO 22004KT 10SM CLR 04/M05 A3010 RMK AO2 =
2017-11-20 23:55 METAR KSNC 210455Z AUTO 24004G10KT 10SM CLR 04/M05 A3009 RMK AO2 =
2017-11-20 23:35 METAR KSNC 210435Z AUTO VRB06KT 10SM CLR 04/M05 A3010 RMK AO2 =
2017-11-20 23:15 METAR KSNC 210415Z AUTO 24004KT 10SM CLR 04/M04 A3010 RMK AO2 =
2017-11-20 22:55 METAR KSNC 210355Z AUTO 24005KT 10SM CLR 04/M04 A3010 RMK AO2 =
2017-11-20 22:35 METAR KSNC 210335Z AUTO 23007KT 10SM CLR 04/M04 A3009 RMK AO2 =
2017-11-20 22:15 METAR KSNC 210315Z AUTO 23006KT 10SM CLR 04/M05 A3009 RMK AO2 =
2017-11-20 21:55 METAR KSNC 210255Z AUTO VRB05KT 10SM CLR 04/M05 A3009 RMK AO2 =
2017-11-20 21:35 METAR KSNC 210235Z AUTO 25004KT 10SM CLR 04/M05 A3008 RMK AO2 =
2017-11-20 21:15 METAR KSNC 210215Z AUTO VRB04KT 10SM CLR 05/M05 A3008 RMK AO2 =
2017-11-20 20:55 METAR KSNC 210155Z AUTO VRB06KT 10SM CLR 05/M05 A3008 RMK AO2 =
2017-11-20 20:35 METAR KSNC 210135Z AUTO 24007KT 220V280 10SM CLR 05/M05 A3007 RMK AO2 =
2017-11-20 20:15 METAR KSNC 210115Z AUTO 25007KT 210V270 10SM SCT055 05/M05 A3007 RMK AO2 =
2017-11-20 19:55 METAR KSNC 210055Z AUTO 25007KT 220V280 10SM OVC055 06/M05 A3007 RMK AO2 =
2017-11-20 19:35 METAR KSNC 210035Z AUTO VRB06KT 10SM BKN055 06/M05 A3006 RMK AO2 =
2017-11-20 19:15 METAR KSNC 210015Z AUTO 25005G11KT 10SM BKN060 06/M05 A3005 RMK AO2 =
2017-11-20 18:55 METAR KSNC 202355Z AUTO 25004KT 10SM OVC060 06/M05 A3005 RMK AO2 =
2017-11-20 18:35 METAR KSNC 202335Z AUTO 26007KT 10SM OVC060 06/M05 A3005 RMK AO2 =
2017-11-20 18:15 METAR KSNC 202315Z AUTO 25005KT 10SM SCT055 OVC065 06/M06 A3004 RMK AO2 =
2017-11-20 17:55 METAR KSNC 202255Z AUTO 25006KT 10SM BKN050 BKN055 OVC070 06/M06 A3004 RMK AO2 =
2017-11-20 17:35 METAR KSNC 202235Z AUTO 26003KT 10SM FEW050 OVC070 05/M06 A3003 RMK AO2 =
2017-11-20 17:15 METAR KSNC 202215Z AUTO VRB05KT 10SM OVC070 05/M06 A3002 RMK AO2 =
2017-11-20 16:55 METAR KSNC 202155Z AUTO 26004KT 10SM BKN070 05/M06 A3001 RMK AO2 =
2017-11-20 16:35 METAR KSNC 202135Z AUTO VRB03KT 10SM BKN065 BKN075 05/M06 A3001 RMK AO2 =
2017-11-20 16:15 METAR KSNC 202115Z AUTO VRB03KT 10SM SCT060 BKN075 05/M06 A3000 RMK AO2 =
2017-11-20 15:55 METAR KSNC 202055Z AUTO VRB05KT 10SM SCT075 05/M07 A3000 RMK AO2 =
2017-11-20 15:35 METAR KSNC 202035Z AUTO 29007G14KT 10SM FEW060 FEW070 06/M07 A2999 RMK AO2 =
2017-11-20 15:15 METAR KSNC 202015Z AUTO 27013G24KT 240V300 10SM FEW060 FEW070 06/M07 A2998 RMK
                 AO2 =
2017-11-20 14:55 METAR KSNC 201955Z AUTO 28008G19KT 240V300 10SM FEW060 SCT070 07/M07 A2997 RMK
                 AO2 =
2017-11-20 14:35 METAR KSNC 201935Z AUTO 27011G19KT 230V310 10SM SCT060 SCT070 07/M08 A2996 RMK
                 AO2 =
2017-11-20 14:15 METAR KSNC 201915Z AUTO 28009G23KT 10SM SCT060 06/M08 A2996 RMK AO2 =
2017-11-20 13:55 METAR KSNC 201855Z AUTO 29011G20KT 10SM FEW050 FEW060 07/M07 A2995 RMK AO2 =
2017-11-20 13:35 METAR KSNC 201835Z AUTO 28008G14KT 10SM SCT055 SCT065 06/M08 A2995 RMK AO2 =
2017-11-20 13:15 METAR KSNC 201815Z AUTO VRB06G16KT 10SM FEW050 SCT060 05/M08 A2995 RMK AO2 =
2017-11-20 12:55 METAR KSNC 201755Z AUTO 29008G18KT 240V320 10SM SCT055 SCT065 06/M08 A2995 RMK
                 AO2 =
2017-11-20 12:35 METAR KSNC 201735Z AUTO 28007G19KT 220V310 10SM FEW050 06/M09 A2995 RMK AO2 =
2017-11-20 12:15 METAR KSNC 201715Z AUTO 29010G15KT 10SM SCT050 SCT055 06/M09 A2995 RMK AO2 =
2017-11-20 11:55 METAR KSNC 201655Z AUTO 28009G17KT 10SM FEW038 FEW045 BKN050 06/M09 A2995 RMK
                 AO2 =
2017-11-20 11:35 METAR KSNC 201635Z AUTO 28007G19KT 230V320 10SM FEW043 BKN050 BKN080 05/M09
                 A2996 RMK AO2 =

Support USWX by starting your Amazon purchase here.